Time;durP1;ratioP1;P1;durP2;ratioP2;P2;SDS_P1;SDS_P2;PMS_P1;PMS_P2;Temp;Humidity;BMP_temperature;BMP_pressure;BME280_temperature;BME280_humidity;BME280_pressure;Samples;Min_cycle;Max_cycle;Signal;HPM_P1;HPM_P2
2022/06/17 00:05:31;;;;;;;1.70;0.80;;;;;;;22.54;47.48;100304.76;1836252;106;26091;-82
2022/06/17 00:09:30;;;;;;;1.55;1.10;;;;;;;22.48;47.31;100312.05;1791889;107;25872;-80
2022/06/17 00:13:04;;;;;;;2.47;0.95;;;;;;;22.42;47.03;100301.13;1794027;107;25744;-81
2022/06/17 00:16:55;;;;;;;2.83;0.90;;;;;;;22.32;46.86;100296.50;1845381;105;26171;-81
2022/06/17 00:20:29;;;;;;;2.47;0.98;;;;;;;22.26;46.81;100305.09;1834752;103;25851;-84
2022/06/17 00:27:37;;;;;;;2.00;1.00;;;;;;;22.03;46.84;100305.16;1816332;106;26086;-84
2022/06/17 00:31:10;;;;;;;5.42;1.10;;;;;;;21.92;46.99;100305.44;1849066;105;25961;-82
2022/06/17 00:35:12;;;;;;;6.08;1.00;;;;;;;21.91;47.09;100308.14;1836655;106;26402;-83
2022/06/17 00:38:42;;;;;;;2.75;0.98;;;;;;;21.95;47.03;100305.82;1774101;109;25941;-82
2022/06/17 00:42:19;;;;;;;1.20;0.78;;;;;;;21.91;46.94;100304.16;1758945;110;25905;-83
2022/06/17 00:46:12;;;;;;;1.45;0.70;;;;;;;21.87;46.95;100298.05;1758847;110;26273;-83
2022/06/17 00:49:51;;;;;;;1.72;1.27;;;;;;;21.88;46.68;100298.92;1824602;106;25878;-82
2022/06/17 00:53:43;;;;;;;1.52;0.70;;;;;;;21.80;46.51;100305.75;1796611;108;26664;-87
2022/06/17 00:57:45;;;;;;;1.92;0.70;;;;;;;21.72;46.34;100301.52;1820897;107;26662;-84
2022/06/17 01:01:17;;;;;;;2.00;0.62;;;;;;;21.63;46.37;100306.14;1831688;105;25950;-78
2022/06/17 01:05:08;;;;;;;1.40;0.60;;;;;;;21.59;46.25;100305.77;1788892;109;25862;-78
2022/06/17 01:13:23;;;;;;;1.85;0.55;;;;;;;21.53;46.23;100311.66;1739132;112;25883;-78
2022/06/17 01:25:53;;;;;;;;;;;;;;;;;;;;;
2022/06/17 01:29:33;;;;;;;0.90;0.75;;;;;;;21.14;46.41;100313.80;1733513;113;25915;-78
2022/06/17 01:37:27;;;;;;;;;;;;;;;;;;;;;
2022/06/17 01:40:56;;;;;;;1.52;0.57;;;;;;;20.89;46.49;100323.14;1750945;111;25978;-77
2022/06/17 01:44:35;;;;;;;1.87;0.80;;;;;;;20.84;46.48;100332.97;1742972;109;25895;-77
2022/06/17 01:48:47;;;;;;;;;;;;;;;20.79;46.50;100333.07;1718264;113;25976;-77
2022/06/17 01:52:57;;;;;;;1.22;0.57;;;;;;;20.73;46.44;100338.48;1750161;108;25951;-77
2022/06/17 01:56:35;;;;;;;2.60;0.90;;;;;;;20.62;46.47;100340.01;1745130;113;25901;-77
2022/06/17 02:00:08;;;;;;;3.55;0.70;;;;;;;20.63;46.44;100344.39;1752021;110;25438;-77
2022/06/17 02:04:23;;;;;;;2.05;1.40;;;;;;;20.59;46.32;100348.02;1761319;112;25843;-79
2022/06/17 02:08:32;;;;;;;4.33;1.02;;;;;;;20.45;46.43;100349.97;1743546;112;26068;-78
2022/06/17 02:16:18;;;;;;;2.00;1.40;;;;;;;20.33;46.56;100347.55;1787064;109;25828;-78
2022/06/17 02:19:54;;;;;;;2.42;1.22;;;;;;;20.26;46.67;100356.92;1762809;110;25953;-77
2022/06/17 02:23:27;;;;;;;3.80;1.65;;;;;;;20.12;46.86;100352.77;1784310;109;25449;-78
2022/06/17 02:27:22;;;;;;;;;;;;;;;;;;;;;
2022/06/17 02:31:08;;;;;;;4.55;1.22;;;;;;;19.96;47.28;100371.51;1686711;115;25801;-78
2022/06/17 02:35:31;;;;;;;1.10;0.80;;;;;;;19.91;47.49;100375.11;1746825;111;25884;-77
2022/06/17 02:43:01;;;;;;;3.15;1.10;;;;;;;19.91;47.62;100373.37;1711243;114;25842;-77
2022/06/17 02:46:46;;;;;;;2.37;1.10;;;;;;;19.92;47.70;100367.62;1696463;114;26079;-78
2022/06/17 02:50:27;;;;;;;2.25;1.00;;;;;;;19.87;47.78;100379.58;1741287;110;25931;-77
2022/06/17 02:57:57;;;;;;;3.95;0.70;;;;;;;19.82;47.97;100389.36;1721047;114;25820;-78
2022/06/17 03:01:38;;;;;;;2.55;0.80;;;;;;;19.85;48.09;100393.75;1791391;107;26017;-77
2022/06/17 03:05:35;;;;;;;2.92;0.70;;;;;;;19.84;48.09;100398.59;;;;
2022/06/17 03:09:21;;;;;;;0.82;0.72;;;;;;;19.86;48.17;100401.64;1741664;109;25830;-78
2022/06/17 03:13:22;;;;;;;1.15;0.68;;;;;;;19.91;48.02;100410.41;1727605;112;26045;-79
2022/06/17 03:17:00;;;;;;;1.20;0.53;;;;;;;19.98;47.87;100414.71;1684840;112;26104;-79
2022/06/17 03:21:05;;;;;;;2.25;1.07;;;;;;;19.98;47.63;100408.52;1653544;116;25897;-79
2022/06/17 03:25:35;;;;;;;1.10;0.80;;;;;;;20.01;47.53;100411.13;1658317;117;25794;-78
2022/06/17 03:29:28;;;;;;;4.25;0.72;;;;;;;20.04;47.29;100414.59;1637682;118;25984;-77
2022/06/17 03:33:37;;;;;;;4.22;0.57;;;;;;;20.07;47.14;100420.30;1659251;117;26128;-78
2022/06/17 03:42:03;;;;;;;1.12;0.80;;;;;;;20.18;46.85;100423.69;1754071;110;26810;-77
2022/06/17 03:45:44;;;;;;;0.98;0.70;;;;;;;20.28;46.69;100427.94;1721024;110;26084;-77
2022/06/17 03:49:20;;;;;;;;;;;;;;;;;;;;;
2022/06/17 03:53:49;;;;;;;2.92;0.78;;;;;;;20.38;46.32;100427.77;1810658;107;25932;-77
2022/06/17 03:57:37;;;;;;;4.72;0.60;;;;;;;20.33;46.36;100429.17;1850814;105;26012;-77
2022/06/17 04:01:50;;;;;;;;;;;;;;;;;;;;;
2022/06/17 04:05:20;;;;;;;1.30;0.72;;;;;;;20.40;46.19;100428.17;1847033;105;26195;-78
2022/06/17 04:09:13;;;;;;;3.65;0.85;;;;;;;20.48;46.12;100431.56;1839291;106;25391;-78
2022/06/17 04:12:55;;;;;;;0.90;0.62;;;;;;;20.57;45.98;100437.20;1837618;106;25627;-78
2022/06/17 04:16:58;;;;;;;;;;;;;;;;;;;;;
2022/06/17 04:21:00;;;;;;;;;;;;;;;;;;;;;
2022/06/17 04:24:36;;;;;;;2.55;0.70;;;;;;;20.75;45.86;100450.16;1841272;105;26028;-77
2022/06/17 04:28:35;;;;;;;1.42;0.50;;;;;;;20.79;45.75;100450.98;1845851;105;25809;-77
2022/06/17 04:32:39;;;;;;;3.33;0.55;;;;;;;20.87;45.61;100449.52;1856063;105;25946;-78
2022/06/17 04:36:16;;;;;;;1.77;0.50;;;;;;;20.86;45.61;100451.75;1856859;105;25664;-77
2022/06/17 04:40:23;;;;;;;2.27;0.50;;;;;;;20.93;45.42;100452.93;1871521;104;25501;-78
2022/06/17 04:44:17;;;;;;;;;;;;;;;;;;;;;
2022/06/17 04:47:45;;;;;;;;;;;;;;;;;;;;;
2022/06/17 04:51:14;;;;;;;1.98;0.45;;;;;;;20.98;45.42;100461.66;1984035;97;25817;-77
2022/06/17 04:54:53;;;;;;;0.68;0.40;;;;;;;21.13;45.24;100463.63;2000485;98;25766;-77
2022/06/17 05:06:09;;;;;;;2.15;0.40;;;;;;;21.15;44.85;100461.34;1860196;104;26970;-77
2022/06/17 05:09:49;;;;;;;3.55;0.47;;;;;;;21.05;45.02;100465.53;1878850;103;25771;-77
2022/06/17 05:13:26;;;;;;;1.27;0.45;;;;;;;21.14;44.96;100468.89;1860168;106;25696;-77
2022/06/17 05:17:00;;;;;;;1.50;0.50;;;;;;;21.32;44.83;100461.03;1862658;104;25837;-77
2022/06/17 05:24:28;;;;;;;1.57;0.50;;;;;;;21.54;44.53;100465.97;1837790;106;26070;-77
2022/06/17 05:32:59;;;;;;;2.10;0.57;;;;;;;21.73;44.33;100468.64;1874719;102;25542;-78
2022/06/17 05:36:23;;;;;;;2.20;0.95;;;;;;;21.89;44.19;100477.16;1846871;104;25859;-78
2022/06/17 05:39:57;;;;;;;4.00;0.50;;;;;;;21.97;43.94;100476.56;1851163;105;25577;-78
2022/06/17 05:43:29;;;;;;;1.52;0.50;;;;;;;22.10;43.91;100476.67;1851459;106;25847;-78
2022/06/17 05:46:59;;;;;;;0.90;0.70;;;;;;;22.26;43.72;100483.02;1853181;103;25910;-78
2022/06/17 05:50:45;;;;;;;1.75;0.80;;;;;;;22.34;43.60;100490.34;1851864;106;25775;-78
2022/06/17 05:54:35;;;;;;;1.17;0.50;;;;;;;22.44;43.45;100500.30;1847523;106;25814;-78
2022/06/17 05:58:22;;;;;;;1.50;0.72;;;;;;;22.55;43.43;100489.86;1914226;101;26132;-78
2022/06/17 06:02:01;;;;;;;1.52;0.40;;;;;;;22.70;43.29;100493.05;1995231;95;25806;-78
2022/06/17 06:05:44;;;;;;;2.60;0.53;;;;;;;22.84;43.08;100499.75;2054771;94;25692;-79
2022/06/17 06:09:42;;;;;;;0.82;0.50;;;;;;;22.96;42.84;100499.08;2064213;94;25316;-79
2022/06/17 06:13:08;;;;;;;2.00;0.60;;;;;;;23.08;42.73;100506.30;2013890;95;25372;-79
2022/06/17 06:16:41;;;;;;;1.77;0.50;;;;;;;23.25;42.67;100504.95;2033715;95;26941;-78
2022/06/17 06:20:18;;;;;;;1.22;0.60;;;;;;;23.41;42.46;100496.10;2034535;95;25901;-79
2022/06/17 06:24:05;;;;;;;7.03;0.57;;;;;;;23.55;42.22;100493.46;2047650;95;26025;-78
2022/06/17 06:27:34;;;;;;;2.60;0.60;;;;;;;23.67;42.04;100491.39;2049170;95;25748;-78
2022/06/17 06:31:41;;;;;;;1.98;0.50;;;;;;;23.80;41.85;100491.48;2048803;95;25771;-79
2022/06/17 06:35:07;;;;;;;0.98;0.50;;;;;;;23.92;41.66;100495.09;1958745;99;25770;-79
2022/06/17 06:38:34;;;;;;;1.87;0.60;;;;;;;24.10;41.45;100494.13;1958660;99;26116;-79
2022/06/17 06:42:05;;;;;;;1.37;0.42;;;;;;;24.25;41.16;100493.20;1958936;99;25802;-79
2022/06/17 06:45:44;;;;;;;2.27;0.70;;;;;;;24.45;40.95;100497.95;1881431;101;25839;-77
2022/06/17 06:49:22;;;;;;;1.95;0.50;;;;;;;24.65;40.63;100494.64;1944324;101;25932;-78
2022/06/17 06:52:53;;;;;;;0.65;0.42;;;;;;;24.85;40.39;100495.78;1931754;100;25846;-78
2022/06/17 06:56:42;;;;;;;4.47;0.60;;;;;;;25.10;39.92;100497.14;1921171;101;25994;-78
2022/06/17 07:00:35;;;;;;;3.00;0.68;;;;;;;25.31;39.53;100499.55;1918247;100;25887;-78
2022/06/17 07:04:05;;;;;;;1.27;0.53;;;;;;;25.44;39.09;100503.05;1921183;101;26201;-78
2022/06/17 07:08:01;;;;;;;;;;;;;;;;;;;;;
2022/06/17 07:11:19;;;;;;;1.87;0.98;;;;;;;25.74;38.30;100502.86;1938392;99;25912;-78
2022/06/17 07:18:42;;;;;;;3.42;0.50;;;;;;;26.03;37.65;100503.61;1942825;101;25963;-79
2022/06/17 07:22:31;;;;;;;1.30;0.50;;;;;;;26.29;37.37;100497.23;1914325;100;25860;-79
2022/06/17 07:25:54;;;;;;;2.15;0.60;;;;;;;26.43;36.95;100494.91;1914123;100;25861;-79
2022/06/17 07:29:25;;;;;;;4.12;0.78;;;;;;;26.44;36.89;100509.13;1885586;103;25978;-79
2022/06/17 07:32:53;;;;;;;2.27;0.60;;;;;;;26.63;36.48;100508.83;1876920;105;26619;-84
2022/06/17 07:45:13;;;;;;;2.98;0.90;;;;;;;27.39;35.57;100505.20;1860597;104;26011;-87
2022/06/17 07:49:03;;;;;;;3.67;0.55;;;;;;;27.63;34.67;100504.56;1845474;104;26621;-88
2022/06/17 07:52:55;;;;;;;4.12;0.82;;;;;;;27.89;34.35;100513.66;1762122;109;25856;-83
2022/06/17 07:56:25;;;;;;;2.22;0.50;;;;;;;28.07;34.19;100511.92;1772318;109;26070;-86
2022/06/17 08:08:23;;;;;;;;;;;;;;;;;;;;;
2022/06/17 08:12:22;;;;;;;;;;;;;;;;;;;;;
2022/06/17 08:15:45;;;;;;;2.50;0.50;;;;;;;28.99;31.92;100514.63;1780669;110;25908;-83
2022/06/17 08:19:49;;;;;;;;;;;;;;;;;;;;;
2022/06/17 08:23:46;;;;;;;1.35;0.60;;;;;;;29.03;31.35;100529.69;1707895;111;25815;-84
2022/06/17 08:44:34;;;;;;;;;;;;;;;;;;;;;
2022/06/17 09:01:51;;;;;;;4.30;0.57;;;;;;;28.71;32.81;100523.59;1638019;115;25538;-80
2022/06/17 09:05:33;;;;;;;1.22;0.68;;;;;;;28.75;32.87;100530.16;1633018;119;26241;-78
2022/06/17 09:09:35;;;;;;;3.45;0.80;;;;;;;28.36;32.84;100538.70;1633496;119;25937;-78
2022/06/17 09:13:39;;;;;;;1.98;0.72;;;;;;;28.42;33.16;100534.91;1651394;118;26262;-81
2022/06/17 09:17:17;;;;;;;5.25;0.75;;;;;;;28.39;32.93;100538.59;1656228;118;26193;-84
2022/06/17 09:21:08;;;;;;;1.30;0.78;;;;;;;28.36;33.02;100543.20;1665588;118;26490;-84
2022/06/17 09:24:41;;;;;;;;;;;;;;;28.63;32.99;100550.42;1698069;112;26581;-83
2022/06/17 09:28:17;;;;;;;0.90;0.40;;;;;;;28.88;32.49;100550.93;1762016;110;25853;-82
2022/06/17 09:32:19;;;;;;;1.75;0.60;;;;;;;28.93;32.17;100546.22;1848336;105;25835;-80
2022/06/17 09:36:24;;;;;;;0.93;0.57;;;;;;;29.14;32.12;100556.38;1813446;106;25802;-81
2022/06/17 09:40:34;;;;;;;;;;;;;;;;;;;;;
2022/06/17 09:44:22;;;;;;;5.83;0.60;;;;;;;28.81;32.07;100570.11;1849064;106;25833;-78
2022/06/17 09:48:50;;;;;;;2.35;1.07;;;;;;;29.12;32.06;100568.99;1858784;104;25872;-80
2022/06/17 09:53:34;;;;;;;1.50;0.85;;;;;;;29.22;32.01;100571.22;1870725;104;25888;-79
2022/06/17 10:01:19;;;;;;;4.75;1.05;;;;;;;29.78;31.39;100568.30;1793209;109;25938;-79
2022/06/17 10:09:01;;;;;;;7.05;0.60;;;;;;;29.66;30.95;100572.97;1770205;108;25934;-81
2022/06/17 10:21:26;;;;;;;1.87;0.70;;;;;;;30.01;30.77;100573.79;1791181;109;25833;-81
2022/06/17 10:25:12;;;;;;;0.80;0.50;;;;;;;29.74;30.60;100577.96;1797031;109;25974;-82
2022/06/17 10:29:22;;;;;;;1.47;0.72;;;;;;;29.85;30.65;100576.42;1810062;107;25868;-81
2022/06/17 10:33:28;;;;;;;;;;;;;;;;;;;;;
2022/06/17 10:37:19;;;;;;;1.52;0.60;;;;;;;29.87;30.63;100572.33;1931496;101;26029;-81
2022/06/17 10:44:44;;;;;;;;;;;;;;;;;;;;;
2022/06/17 10:49:06;;;;;;;2.80;0.85;;;;;;;29.76;31.17;100574.22;1932077;100;25360;-93
2022/06/17 10:52:47;;;;;;;2.72;0.65;;;;;;;29.70;31.41;100570.98;1877711;103;26103;-90
2022/06/17 10:57:10;;;;;;;1.77;0.60;;;;;;;29.34;31.95;100562.55;1825102;108;26664;-83
2022/06/17 11:01:25;;;;;;;1.22;0.50;;;;;;;28.71;32.21;100572.36;1803696;107;26223;-85
2022/06/17 11:05:16;;;;;;;2.95;0.50;;;;;;;28.46;32.65;100567.33;1747505;112;25800;-84
2022/06/17 11:09:21;;;;;;;;;;;;;;;;;;;;;
2022/06/17 11:13:18;;;;;;;4.90;1.00;;;;;;;27.96;33.23;100565.16;1703554;113;25827;-79
2022/06/17 11:17:32;;;;;;;2.22;0.60;;;;;;;27.73;33.35;100568.83;1732518;111;26123;-83
2022/06/17 11:21:10;;;;;;;1.15;0.80;;;;;;;27.71;33.29;100564.90;1744961;110;25421;-83
2022/06/17 11:25:19;;;;;;;2.52;0.55;;;;;;;27.86;33.13;100577.23;1747538;111;25799;-83
2022/06/17 11:29:10;;;;;;;3.62;0.90;;;;;;;27.91;32.95;100583.23;1791180;109;25437;-85
2022/06/17 11:32:56;;;;;;;1.27;0.50;;;;;;;27.85;32.84;100576.84;1798073;108;26019;-83
2022/06/17 11:37:07;;;;;;;7.85;0.80;;;;;;;27.70;32.98;100579.21;1798069;107;25936;-83
2022/06/17 11:45:05;;;;;;;2.95;0.88;;;;;;;28.06;32.69;100577.20;1772441;108;35754;-84
2022/06/17 11:49:02;;;;;;;8.03;0.68;;;;;;;28.49;32.50;100572.55;1763212;108;26054;-83
2022/06/17 12:01:11;;;;;;;;;;;;;;;;;;;;;
2022/06/17 12:05:39;;;;;;;1.35;0.70;;;;;;;28.89;31.39;100576.84;1666203;116;25807;-83
2022/06/17 12:14:46;;;;;;;0.75;0.60;;;;;;;28.05;31.17;100579.48;1581932;124;26786;-84
2022/06/17 12:18:53;;;;;;;;;;;;;;;;;;;;;
2022/06/17 12:22:57;;;;;;;;;;;;;;;;;;;;;
2022/06/17 12:27:56;;;;;;;0.95;0.57;;;;;;;27.27;32.28;100586.45;1626428;120;25847;-83
2022/06/17 12:42:47;;;;;;;1.65;0.80;;;;;;;27.43;32.74;100579.95;1678575;114;26472;-83
2022/06/17 12:46:43;;;;;;;1.62;0.47;;;;;;;27.30;32.88;100585.42;1634200;118;26058;-83
2022/06/17 12:54:48;;;;;;;1.67;0.70;;;;;;;27.12;33.07;100568.31;1662430;115;25936;-82
2022/06/17 12:59:18;;;;;;;1.37;0.50;;;;;;;26.94;33.20;100567.76;1726706;113;25975;-81
2022/06/17 13:03:23;;;;;;;0.88;0.50;;;;;;;26.79;33.23;100571.44;1775606;110;25909;-83
2022/06/17 13:07:20;;;;;;;2.75;0.82;;;;;;;26.59;33.20;100563.34;1750843;111;25931;-81
2022/06/17 13:15:48;;;;;;;1.77;0.60;;;;;;;26.24;33.75;100564.23;1766700;110;25798;-81
2022/06/17 13:20:24;;;;;;;0.90;0.60;;;;;;;26.14;33.96;100563.71;1738890;110;25980;-83
2022/06/17 13:24:32;;;;;;;3.15;0.60;;;;;;;26.11;34.15;100565.63;1721458;112;25830;-82
2022/06/17 13:32:51;;;;;;;4.72;0.50;;;;;;;25.84;34.18;100559.05;1791550;108;25912;-83
2022/06/17 13:36:59;;;;;;;;;;;;;;;;;;;;;
2022/06/17 13:41:07;;;;;;;;;;;;;;;;;;;;;
2022/06/17 13:45:29;;;;;;;5.55;1.50;;;;;;;26.10;34.65;100558.09;1771716;110;25793;-85
2022/06/17 13:49:43;;;;;;;1.87;0.50;;;;;;;26.27;34.71;100555.23;1770218;110;25518;-86
2022/06/17 13:53:52;;;;;;;4.95;0.53;;;;;;;26.46;34.44;100556.27;1768479;110;25467;-86
2022/06/17 13:57:44;;;;;;;;;;;;;;;;;;;;;
2022/06/17 14:01:12;;;;;;;1.35;0.50;;;;;;;26.78;34.42;100554.12;1769837;110;25852;-85
2022/06/17 14:05:24;;;;;;;;;;;;;;;;;;;;;
2022/06/17 14:09:47;;;;;;;3.58;0.53;;;;;;;26.79;34.79;100542.02;1812068;107;26001;-88
2022/06/17 14:13:45;;;;;;;2.00;1.35;;;;;;;26.80;34.78;100550.47;1794344;107;25848;-89
2022/06/17 14:17:35;;;;;;;4.78;1.77;;;;;;;26.98;34.54;100549.30;1797230;108;25860;-89
2022/06/17 14:22:11;;;;;;;;;;;;;;;;;;;;;
2022/06/17 14:26:01;;;;;;;1.80;0.60;;;;;;;27.03;34.60;100540.16;1881163;103;25865;-86
2022/06/17 14:30:09;;;;;;;0.78;0.55;;;;;;;26.96;34.35;100531.08;1829997;107;25939;-87
2022/06/17 14:34:18;;;;;;;1.60;0.50;;;;;;;27.05;33.85;100538.73;1777121;109;25878;-85
2022/06/17 14:42:53;;;;;;;1.00;0.47;;;;;;;26.90;33.77;100534.91;1780755;110;25603;-88
2022/06/17 14:46:33;;;;;;;0.93;0.50;;;;;;;26.79;33.94;100533.98;1762297;110;26036;-84
2022/06/17 14:50:30;;;;;;;2.83;0.50;;;;;;;26.69;33.73;100533.96;1759470;110;25934;-80
2022/06/17 14:54:27;;;;;;;1.52;0.50;;;;;;;26.59;33.62;100532.59;1761332;110;26312;-75
2022/06/17 14:58:19;;;;;;;7.03;0.65;;;;;;;26.57;33.77;100527.80;1792913;106;25940;-76
2022/06/17 15:02:06;;;;;;;1.50;0.53;;;;;;;26.58;33.81;100527.72;1874454;101;25888;-76
2022/06/17 15:05:53;;;;;;;1.07;0.50;;;;;;;26.73;33.57;100532.93;1877903;104;25832;-81
2022/06/17 15:09:44;;;;;;;2.02;0.40;;;;;;;26.79;33.33;100521.09;1896287;102;25821;-83
2022/06/17 15:17:40;;;;;;;1.40;0.72;;;;;;;26.70;33.50;100529.04;1920050;99;25882;-92
2022/06/17 15:26:01;;;;;;;2.02;0.60;;;;;;;26.35;34.27;100534.41;1852169;105;25826;-80
2022/06/17 15:29:46;;;;;;;0.65;0.40;;;;;;;26.31;36.32;100537.67;1871949;104;25832;-85
2022/06/17 15:33:54;;;;;;;;;;;;;;;;;;;;;
2022/06/17 15:37:54;;;;;;;1.47;0.53;;;;;;;26.00;36.37;100531.31;1756596;111;25839;-85
2022/06/17 15:42:01;;;;;;;8.75;0.62;;;;;;;25.79;36.32;100530.28;1704709;113;25577;-83
2022/06/17 15:45:36;;;;;;;1.90;0.80;;;;;;;25.71;36.20;100533.69;1703240;115;25951;-82
2022/06/17 15:49:53;;;;;;;;;;;;;;;;;;;;;
2022/06/17 15:53:57;;;;;;;1.22;0.80;;;;;;;25.63;36.72;100537.98;1702287;114;26045;-84
2022/06/17 15:58:11;;;;;;;2.15;0.68;;;;;;;25.60;37.31;100547.90;1682110;116;25953;-82
2022/06/17 16:01:54;;;;;;;;;;;;;;;;;;;;;
2022/06/17 16:05:57;;;;;;;2.17;1.00;;;;;;;25.61;39.27;100554.50;1674570;116;25917;-86
2022/06/17 16:09:54;;;;;;;2.05;0.90;;;;;;;25.57;40.00;100560.02;1717137;112;25968;-82
2022/06/17 16:13:41;;;;;;;1.45;0.72;;;;;;;25.51;40.55;100558.42;1825038;103;25839;-82
2022/06/17 16:18:05;;;;;;;;;;;;;;;;;;;;;
2022/06/17 16:21:42;;;;;;;2.10;0.68;;;;;;;25.55;41.25;100551.18;1875467;103;25788;-77
2022/06/17 16:26:12;;;;;;;;;;;;;;;;;;;;;
2022/06/17 16:30:01;;;;;;;;;;;;;;;;;;;;;
2022/06/17 16:33:42;;;;;;;1.47;0.80;;;;;;;25.32;41.72;100561.36;1871134;102;25810;-81
2022/06/17 16:37:31;;;;;;;4.97;0.88;;;;;;;25.29;41.21;100566.33;1952580;98;25796;-86
2022/06/17 16:45:50;;;;;;;1.00;0.62;;;;;;;25.24;40.93;100564.73;1916619;101;25892;-86
2022/06/17 16:49:12;;;;;;;2.08;0.90;;;;;;;25.19;41.77;100571.09;1903401;102;26045;-86
2022/06/17 16:53:03;;;;;;;1.22;0.50;;;;;;;25.20;41.90;100569.30;1904953;102;25750;-85
2022/06/17 16:56:43;;;;;;;1.12;0.53;;;;;;;25.19;41.83;100573.77;1899857;102;25815;-83
2022/06/17 17:00:28;;;;;;;3.75;0.70;;;;;;;25.20;42.13;100572.83;1878292;102;25971;-88
2022/06/17 17:03:52;;;;;;;1.00;0.40;;;;;;;25.13;42.15;100569.10;1902202;102;25793;-85
2022/06/17 17:07:38;;;;;;;;;;;;;;;;;;;;;
2022/06/17 17:11:07;;;;;;;7.95;0.70;;;;;;;25.06;43.03;100571.53;1904503;101;25861;-86
2022/06/17 17:14:46;;;;;;;2.67;0.50;;;;;;;25.05;42.76;100580.00;1881239;104;25858;-87
2022/06/17 17:18:36;;;;;;;1.20;0.60;;;;;;;24.97;42.93;100580.70;1880951;103;26153;-87
2022/06/17 17:26:54;;;;;;;1.87;0.85;;;;;;;24.83;41.42;100585.14;1852615;105;25928;-82
2022/06/17 17:30:34;;;;;;;2.55;0.88;;;;;;;24.83;42.26;100582.48;1853959;106;25422;-85
2022/06/17 17:34:11;;;;;;;4.22;0.90;;;;;;;24.89;42.40;100584.95;1854402;105;25854;-84
2022/06/17 17:38:00;;;;;;;3.60;0.70;;;;;;;24.97;42.40;100584.27;1853519;105;25937;-86
2022/06/17 17:41:56;;;;;;;;;;;;;;;;;;;;;
2022/06/17 17:58:31;;;;;;;1.00;0.68;;;;;;;25.06;41.12;100595.55;1873060;104;25843;-88
2022/06/17 18:02:32;;;;;;;;;;;;;;;;;;;;;
2022/06/17 18:06:30;;;;;;;3.65;0.70;;;;;;;24.77;41.24;100590.67;1873875;104;25886;-85
2022/06/17 18:10:04;;;;;;;3.62;1.00;;;;;;;24.67;40.99;100590.55;1873343;104;25882;-86
2022/06/17 18:13:44;;;;;;;2.70;1.90;;;;;;;24.60;40.64;100596.99;1817089;108;25932;-86
2022/06/17 18:26:08;;;;;;;2.85;0.98;;;;;;;24.27;40.86;100600.62;1715283;113;25915;-86
2022/06/17 18:34:44;;;;;;;7.50;0.88;;;;;;;24.22;42.06;100610.98;1752115;111;25890;-86
2022/06/17 18:38:28;;;;;;;1.42;0.80;;;;;;;24.21;42.73;100607.91;1751922;111;25877;-82
2022/06/17 18:45:51;;;;;;;4.83;0.90;;;;;;;24.09;42.56;100610.92;1755467;110;25943;-85
2022/06/17 18:49:58;;;;;;;2.58;0.88;;;;;;;23.98;42.21;100621.42;1731193;112;25858;-80
2022/06/17 18:53:31;;;;;;;2.50;0.93;;;;;;;23.82;41.59;100619.22;1741798;113;25980;-81
2022/06/17 18:57:16;;;;;;;;;;;;;;;;;;;;;
2022/06/17 19:00:47;;;;;;;4.92;0.82;;;;;;;23.49;42.32;100621.39;1706713;111;26016;-76
2022/06/17 19:04:57;;;;;;;0.90;0.80;;;;;;;23.30;43.06;100626.30;1739562;110;25946;-84
2022/06/17 19:28:34;;;;;;;1.82;1.10;;;;;;;22.26;44.46;100626.44;1713458;113;25946;-78
2022/06/17 19:32:02;;;;;;;1.42;1.00;;;;;;;22.15;44.96;100631.52;1708013;111;27135;-81
2022/06/17 19:35:54;;;;;;;;;;;;;;;;;;;;;
2022/06/17 19:39:41;;;;;;;8.58;1.65;;;;;;;21.93;45.59;100632.80;1772141;109;25901;-85
2022/06/17 19:43:26;;;;;;;4.75;1.80;;;;;;;21.79;45.67;100633.05;1788757;109;31156;-87
2022/06/17 19:47:15;;;;;;;1.98;1.45;;;;;;;21.72;45.65;100629.22;1767889;111;25856;-83
2022/06/17 20:03:29;;;;;;;7.60;1.57;;;;;;;21.32;46.77;100641.36;2341161;80;25516;-74
2022/06/17 20:07:04;;;;;;;5.20;1.98;;;;;;;21.23;47.28;100651.69;2328660;83;26032;-80
2022/06/17 20:10:52;;;;;;;1.98;1.50;;;;;;;21.13;47.30;100646.55;2299441;84;25262;-86
2022/06/17 20:14:21;;;;;;;3.02;1.62;;;;;;;21.06;47.61;100653.73;2344404;83;25732;-86
2022/06/17 20:18:04;;;;;;;3.20;1.90;;;;;;;21.01;47.79;100652.91;2302110;84;25827;-78
2022/06/17 20:21:42;;;;;;;2.10;1.90;;;;;;;20.94;48.02;100652.12;2305821;84;25793;-86
2022/06/17 20:25:15;;;;;;;7.20;1.98;;;;;;;20.86;48.11;100651.82;2287265;85;26064;-89
2022/06/17 20:28:52;;;;;;;4.20;2.20;;;;;;;20.82;48.32;100648.77;2252846;86;25866;-86
2022/06/17 20:32:29;;;;;;;3.80;2.33;;;;;;;20.76;48.46;100649.75;2259649;85;25859;-88
2022/06/17 20:36:04;;;;;;;6.08;2.10;;;;;;;20.73;48.75;100645.81;2258507;85;25866;-86
2022/06/17 20:52:38;;;;;;;7.83;3.00;;;;;;;20.42;49.74;100650.16;2168293;89;25954;-80
2022/06/17 20:56:35;;;;;;;;;;;;;;;;;;;;;
2022/06/17 21:04:14;;;;;;;13.15;3.25;;;;;;;20.30;50.60;100651.63;1959374;98;25883;-75
2022/06/17 21:08:40;;;;;;;;;;;;;;;;;;;;;
2022/06/17 21:26:25;;;;;;;;;;;;;;;;;;;;;
2022/06/17 21:36:02;;;;;;;12.18;3.60;;;;;;;19.87;52.32;100660.48;1848787;102;25998;-82
2022/06/17 21:39:49;;;;;;;12.70;3.45;;;;;;;19.72;52.91;100667.69;1849956;105;25992;-81
2022/06/17 21:43:38;;;;;;;13.00;3.77;;;;;;;19.67;53.25;100668.16;1869850;104;26204;-82
2022/06/17 21:47:15;;;;;;;13.15;4.40;;;;;;;19.61;53.42;100665.56;1853574;103;25867;-81
2022/06/17 21:50:56;;;;;;;;;;;;;;;;;;;;;
2022/06/17 21:54:44;;;;;;;10.50;3.50;;;;;;;19.48;53.66;100666.55;1849509;105;26280;-82
2022/06/17 21:58:46;;;;;;;7.85;3.25;;;;;;;19.49;53.82;100670.50;1889232;100;26052;-88
2022/06/17 22:02:35;;;;;;;;;;;;;;;;;;;;;
2022/06/17 22:05:55;;;;;;;10.48;3.85;;;;;;;19.38;54.11;100672.36;1989937;97;26409;-84
2022/06/17 22:09:21;;;;;;;4.40;2.60;;;;;;;19.33;54.00;100675.02;2022503;93;25543;-86
2022/06/17 22:12:49;;;;;;;4.83;2.55;;;;;;;19.34;54.23;100682.08;2112867;92;25779;-82
2022/06/17 22:16:27;;;;;;;11.83;4.70;;;;;;;19.29;53.84;100673.73;2110814;91;25939;-88
2022/06/17 22:19:52;;;;;;;9.03;3.40;;;;;;;19.25;53.97;100672.89;2153450;90;25767;-88
2022/06/17 22:23:34;;;;;;;7.10;4.42;;;;;;;19.25;53.92;100676.85;2147742;91;25903;-87
2022/06/17 22:27:06;;;;;;;9.08;4.50;;;;;;;19.19;54.07;100676.89;2158645;90;26355;-88
2022/06/17 22:30:36;;;;;;;5.12;4.03;;;;;;;19.19;54.44;100674.70;2142039;91;25709;-92
2022/06/17 22:33:56;;;;;;;8.58;3.52;;;;;;;19.17;54.53;100679.10;2145552;91;25668;-89
2022/06/17 22:37:18;;;;;;;10.50;4.80;;;;;;;19.11;54.61;100667.70;2171317;89;25943;-89
2022/06/17 22:40:43;;;;;;;5.65;3.75;;;;;;;19.09;54.70;100674.75;2172601;89;25740;-88
2022/06/17 22:44:09;;;;;;;5.58;3.35;;;;;;;19.08;54.84;100671.69;2171754;89;26047;-87
2022/06/17 22:47:33;;;;;;;9.13;4.92;;;;;;;19.03;55.00;100673.91;2172114;89;26358;-88
2022/06/17 22:50:59;;;;;;;9.40;4.75;;;;;;;18.92;55.12;100669.15;2175110;89;25676;-90
2022/06/17 22:54:28;;;;;;;5.42;3.80;;;;;;;18.86;55.24;100669.60;2168658;90;25767;-87
2022/06/17 22:57:53;;;;;;;7.97;4.37;;;;;;;18.83;55.51;100663.05;2175452;89;25697;-89
2022/06/17 23:01:49;;;;;;;3.50;2.17;;;;;;;18.74;55.50;100658.25;2152264;89;25873;-84
2022/06/17 23:05:24;;;;;;;4.12;2.87;;;;;;;18.77;55.31;100652.95;2160132;89;25935;-83
2022/06/17 23:08:48;;;;;;;6.08;2.60;;;;;;;18.90;55.28;100653.73;2171571;89;26324;-83
2022/06/17 23:12:16;;;;;;;3.05;2.40;;;;;;;18.90;55.21;100649.78;2171082;90;25927;-83
2022/06/17 23:16:03;;;;;;;5.57;2.97;;;;;;;18.90;55.35;100653.73;2173013;89;25826;-84
2022/06/17 23:23:18;;;;;;;;;;;;;;;;;;;;;
2022/06/17 23:26:48;;;;;;;8.85;2.85;;;;;;;18.92;55.45;100648.89;2177347;89;25725;-82
2022/06/17 23:30:50;;;;;;;4.78;2.27;;;;;;;18.92;55.52;100648.89;2177004;89;25449;-83
2022/06/17 23:34:36;;;;;;;3.58;2.80;;;;;;;18.82;55.77;100651.16;2171148;89;25744;-85
2022/06/17 23:38:15;;;;;;;4.62;2.83;;;;;;;18.66;55.95;100651.64;2172067;89;25718;-82
2022/06/17 23:41:56;;;;;;;6.40;4.08;;;;;;;18.60;56.21;100653.02;2174241;89;25808;-85
2022/06/17 23:45:39;;;;;;;7.70;2.90;;;;;;;18.63;56.33;100655.64;2172495;89;26888;-83
2022/06/17 23:49:41;;;;;;;4.25;3.10;;;;;;;18.67;56.37;100661.78;2168072;89;25849;-84
2022/06/17 23:53:42;;;;;;;8.98;3.17;;;;;;;18.66;56.51;100655.59;2170347;89;25799;-86
2022/06/17 23:57:18;;;;;;;4.15;3.17;;;;;;;18.61;56.53;100648.16;2171660;89;25834;-85
